createdAt,value
2017-12-09T00:00:38.921Z,972.89
2017-12-09T00:01:38.912Z,972.90
2017-12-09T00:02:38.899Z,972.90
2017-12-09T00:03:38.901Z,972.88
2017-12-09T00:04:59.898Z,972.88
2017-12-09T00:05:38.882Z,972.81
2017-12-09T00:06:38.873Z,972.80
2017-12-09T00:07:38.862Z,972.81
2017-12-09T00:08:38.859Z,972.78
2017-12-09T00:09:38.865Z,972.81
2017-12-09T00:10:59.839Z,972.79
2017-12-09T00:11:38.832Z,972.75
2017-12-09T00:12:38.820Z,972.74
2017-12-09T00:13:38.832Z,972.78
2017-12-09T00:14:38.804Z,972.75
2017-12-09T00:15:38.798Z,972.78
2017-12-09T00:16:59.800Z,972.77
2017-12-09T00:17:38.783Z,972.76
2017-12-09T00:18:38.781Z,972.80
2017-12-09T00:19:38.786Z,972.75
2017-12-09T00:20:38.751Z,972.76
2017-12-09T00:21:38.749Z,972.80
2017-12-09T00:22:59.767Z,972.80
2017-12-09T00:23:38.732Z,972.76
2017-12-09T00:24:38.715Z,972.76
2017-12-09T00:25:38.716Z,972.75
2017-12-09T00:26:38.714Z,972.77
2017-12-09T00:27:38.694Z,972.79
2017-12-09T00:28:59.697Z,972.79
2017-12-09T00:29:38.687Z,972.80
2017-12-09T00:30:38.671Z,972.78
2017-12-09T00:31:38.662Z,972.80
2017-12-09T00:32:38.655Z,972.81
2017-12-09T00:33:38.644Z,972.81
2017-12-09T00:34:59.660Z,972.86
2017-12-09T00:35:38.621Z,972.88
2017-12-09T00:36:38.619Z,972.89
2017-12-09T00:37:38.609Z,972.86
2017-12-09T00:38:38.597Z,972.87
2017-12-09T00:39:38.591Z,972.81
2017-12-09T00:40:59.595Z,972.80
2017-12-09T00:41:38.577Z,972.81
2017-12-09T00:42:38.568Z,972.81
2017-12-09T00:43:38.560Z,972.84
2017-12-09T00:44:38.567Z,972.82
2017-12-09T00:45:38.545Z,972.85
2017-12-09T00:46:59.545Z,972.81
2017-12-09T00:47:38.538Z,972.81
2017-12-09T00:48:38.516Z,972.79
2017-12-09T00:49:38.512Z,972.78
2017-12-09T00:50:38.499Z,972.74
2017-12-09T00:51:38.511Z,972.77
2017-12-09T00:52:59.535Z,972.73
2017-12-09T00:53:38.488Z,972.71
2017-12-09T00:54:38.466Z,972.76
2017-12-09T00:55:38.456Z,972.72
2017-12-09T00:56:38.447Z,972.74
2017-12-09T00:57:38.442Z,972.77
2017-12-09T00:58:59.437Z,972.76
2017-12-09T00:59:38.426Z,972.76
2017-12-09T01:00:38.414Z,972.72
2017-12-09T01:01:38.404Z,972.71
2017-12-09T01:02:38.407Z,972.79
2017-12-09T01:03:38.387Z,972.76
2017-12-09T01:04:59.392Z,972.77
2017-12-09T01:05:38.370Z,972.72
2017-12-09T01:06:38.364Z,972.71
2017-12-09T01:07:38.360Z,972.69
2017-12-09T01:08:38.346Z,972.67
2017-12-09T01:09:38.332Z,972.68
2017-12-09T01:10:59.327Z,972.66
2017-12-09T01:11:38.319Z,972.55
2017-12-09T01:12:38.318Z,972.55
2017-12-09T01:13:38.299Z,972.56
2017-12-09T01:14:38.298Z,972.55
2017-12-09T01:15:38.282Z,972.54
2017-12-09T01:16:59.280Z,972.59
2017-12-09T01:17:38.299Z,972.64
2017-12-09T01:18:38.259Z,972.59
2017-12-09T01:19:38.251Z,972.58
2017-12-09T01:20:38.239Z,972.61
2017-12-09T01:21:38.232Z,972.61
2017-12-09T01:22:59.229Z,972.60
2017-12-09T01:23:38.221Z,972.65
2017-12-09T01:24:38.219Z,972.60
2017-12-09T01:25:38.199Z,972.60
2017-12-09T01:26:38.190Z,972.57
2017-12-09T01:27:38.171Z,972.56
2017-12-09T01:28:59.173Z,972.59
2017-12-09T01:29:38.182Z,972.58
2017-12-09T01:30:38.150Z,972.54
2017-12-09T01:31:38.172Z,972.51
2017-12-09T01:32:38.130Z,972.51
2017-12-09T01:33:38.128Z,972.55
2017-12-09T01:34:59.135Z,972.54
2017-12-09T01:35:38.106Z,972.48
2017-12-09T01:36:38.102Z,972.47
2017-12-09T01:37:38.092Z,972.52
2017-12-09T01:38:38.109Z,972.44
2017-12-09T01:39:38.073Z,972.40
2017-12-09T01:40:59.075Z,972.47
2017-12-09T01:41:38.057Z,972.42
2017-12-09T01:42:38.057Z,972.42
2017-12-09T01:43:38.036Z,972.45
2017-12-09T01:44:38.028Z,972.43
2017-12-09T01:45:38.042Z,972.44
2017-12-09T01:46:59.017Z,972.49
2017-12-09T01:47:38.001Z,972.45
2017-12-09T01:48:38.003Z,972.45
2017-12-09T01:49:37.982Z,972.45
2017-12-09T01:50:37.976Z,972.43
2017-12-09T01:51:37.972Z,972.44
2017-12-09T01:52:58.969Z,972.43
2017-12-09T01:53:37.951Z,972.44
2017-12-09T01:54:37.948Z,972.41
2017-12-09T01:55:37.934Z,972.44
2017-12-09T01:56:37.926Z,972.43
2017-12-09T01:57:37.919Z,972.46
2017-12-09T01:58:58.928Z,972.48
2017-12-09T01:59:37.905Z,972.47
2017-12-09T02:00:37.892Z,972.51
2017-12-09T02:01:37.883Z,972.48
2017-12-09T02:02:37.870Z,972.51
2017-12-09T02:03:37.865Z,972.51
2017-12-09T02:04:58.857Z,972.56
2017-12-09T02:05:37.852Z,972.57
2017-12-09T02:06:37.837Z,972.57
2017-12-09T02:07:37.835Z,972.63
2017-12-09T02:08:37.833Z,972.62
2017-12-09T02:09:37.819Z,972.60
2017-12-09T02:10:58.802Z,972.60
2017-12-09T02:11:37.794Z,972.50
2017-12-09T02:12:37.786Z,972.52
2017-12-09T02:13:37.776Z,972.49
2017-12-09T02:14:37.770Z,972.50
2017-12-09T02:15:37.757Z,972.53
2017-12-09T02:16:58.754Z,972.47
2017-12-09T02:17:37.749Z,972.50
2017-12-09T02:18:37.736Z,972.45
2017-12-09T02:19:37.726Z,972.39
2017-12-09T02:20:37.717Z,972.36
2017-12-09T02:21:37.706Z,972.37
2017-12-09T02:22:58.702Z,972.37
2017-12-09T02:23:37.686Z,972.40
2017-12-09T02:24:37.676Z,972.40
2017-12-09T02:25:37.667Z,972.38
2017-12-09T02:26:37.674Z,972.43
2017-12-09T02:27:37.649Z,972.39
2017-12-09T02:28:58.647Z,972.43
2017-12-09T02:29:37.635Z,972.45
2017-12-09T02:30:37.621Z,972.50
2017-12-09T02:31:37.661Z,972.51
2017-12-09T02:32:37.605Z,972.45
2017-12-09T02:33:37.606Z,972.43
2017-12-09T02:34:58.592Z,972.49
2017-12-09T02:35:37.575Z,972.50
2017-12-09T02:36:37.568Z,972.51
2017-12-09T02:37:37.560Z,972.52
2017-12-09T02:38:37.555Z,972.49
2017-12-09T02:39:37.547Z,972.53
2017-12-09T02:40:58.547Z,972.52
2017-12-09T02:41:37.524Z,972.56
2017-12-09T02:42:37.516Z,972.57
2017-12-09T02:43:37.508Z,972.60
2017-12-09T02:44:37.501Z,972.60
2017-12-09T02:45:37.486Z,972.60
2017-12-09T02:46:58.497Z,972.58
2017-12-09T02:47:37.470Z,972.57
2017-12-09T02:48:37.468Z,972.63
2017-12-09T02:49:37.455Z,972.62
2017-12-09T02:50:37.458Z,972.53
2017-12-09T02:51:37.444Z,972.61
2017-12-09T02:52:58.437Z,972.62
2017-12-09T02:53:37.423Z,972.56
2017-12-09T02:54:37.414Z,972.52
2017-12-09T02:55:37.404Z,972.57
2017-12-09T02:56:37.406Z,972.60
2017-12-09T02:57:37.399Z,972.52
2017-12-09T02:58:58.394Z,972.62
2017-12-09T02:59:37.371Z,972.56
2017-12-09T03:00:37.396Z,972.55
2017-12-09T03:01:37.352Z,972.53
2017-12-09T03:02:37.351Z,972.60
2017-12-09T03:03:37.338Z,972.56
2017-12-09T03:04:58.341Z,972.56
2017-12-09T03:05:37.323Z,972.56
2017-12-09T03:06:37.322Z,972.55
2017-12-09T03:07:37.312Z,972.48
2017-12-09T03:08:37.306Z,972.52
2017-12-09T03:09:37.288Z,972.56
2017-12-09T03:10:58.288Z,972.50
2017-12-09T03:11:37.276Z,972.54
2017-12-09T03:12:37.294Z,972.50
2017-12-09T03:13:37.273Z,972.56
2017-12-09T03:14:37.254Z,972.49
2017-12-09T03:15:37.274Z,972.51
2017-12-09T03:16:58.236Z,972.47
2017-12-09T03:17:37.226Z,972.53
2017-12-09T03:18:37.241Z,972.48
2017-12-09T03:19:37.209Z,972.49
2017-12-09T03:20:37.203Z,972.46
2017-12-09T03:21:37.190Z,972.49
2017-12-09T03:22:58.190Z,972.52
2017-12-09T03:23:37.174Z,972.48
2017-12-09T03:24:37.172Z,972.43
2017-12-09T03:25:37.158Z,972.48
2017-12-09T03:26:37.153Z,972.47
2017-12-09T03:27:37.144Z,972.50
2017-12-09T03:28:58.144Z,972.48
2017-12-09T03:29:37.131Z,972.52
2017-12-09T03:30:37.115Z,972.57
2017-12-09T03:31:37.109Z,972.55
2017-12-09T03:32:37.103Z,972.59
2017-12-09T03:33:37.103Z,972.55
2017-12-09T03:34:58.090Z,972.54
2017-12-09T03:35:37.078Z,972.56
2017-12-09T03:36:37.073Z,972.59
2017-12-09T03:37:37.065Z,972.55
2017-12-09T03:38:37.055Z,972.64
2017-12-09T03:39:37.041Z,972.59
2017-12-09T03:40:58.043Z,972.54
2017-12-09T03:41:37.026Z,972.55
2017-12-09T03:42:37.023Z,972.58
2017-12-09T03:43:37.014Z,972.57
2017-12-09T03:44:37.004Z,972.65
2017-12-09T03:45:36.996Z,972.61
2017-12-09T03:46:57.990Z,972.55
2017-12-09T03:47:37.003Z,972.61
2017-12-09T03:48:36.969Z,972.52
2017-12-09T03:49:36.967Z,972.53
2017-12-09T03:50:36.955Z,972.51
2017-12-09T03:51:36.942Z,972.59
2017-12-09T03:52:57.943Z,972.55
2017-12-09T03:53:36.930Z,972.51
2017-12-09T03:54:36.917Z,972.54
2017-12-09T03:55:36.913Z,972.55
2017-12-09T03:56:36.915Z,972.52
2017-12-09T03:57:36.900Z,972.50
2017-12-09T03:58:57.909Z,972.47
2017-12-09T03:59:36.881Z,972.46
2017-12-09T04:00:36.877Z,972.41
2017-12-09T04:01:36.868Z,972.38
2017-12-09T04:02:36.860Z,972.42
2017-12-09T04:03:36.853Z,972.47
2017-12-09T04:04:57.848Z,972.40
2017-12-09T04:05:36.840Z,972.37
2017-12-09T04:06:36.820Z,972.33
2017-12-09T04:07:36.814Z,972.36
2017-12-09T04:08:36.805Z,972.39
2017-12-09T04:09:36.794Z,972.34
2017-12-09T04:10:57.792Z,972.34
2017-12-09T04:11:36.790Z,972.35
2017-12-09T04:12:36.779Z,972.37
2017-12-09T04:13:36.775Z,972.35
2017-12-09T04:14:36.755Z,972.42
2017-12-09T04:15:36.750Z,972.39
2017-12-09T04:16:57.747Z,972.43
2017-12-09T04:17:36.727Z,972.39
2017-12-09T04:18:36.724Z,972.42
2017-12-09T04:19:36.708Z,972.42
2017-12-09T04:20:36.705Z,972.48
2017-12-09T04:21:36.700Z,972.45
2017-12-09T04:22:57.690Z,972.37
2017-12-09T04:23:36.682Z,972.40
2017-12-09T04:24:36.670Z,972.40
2017-12-09T04:25:36.667Z,972.36
2017-12-09T04:26:36.652Z,972.41
2017-12-09T04:27:36.645Z,972.43
2017-12-09T04:28:57.652Z,972.51
2017-12-09T04:29:36.633Z,972.51
2017-12-09T04:30:36.621Z,972.52
2017-12-09T04:31:36.610Z,972.55
2017-12-09T04:32:36.608Z,972.56
2017-12-09T04:33:36.597Z,972.56
2017-12-09T04:34:57.592Z,972.53
2017-12-09T04:35:36.575Z,972.54
2017-12-09T04:36:36.573Z,972.60
2017-12-09T04:37:36.563Z,972.55
2017-12-09T04:38:36.549Z,972.56
2017-12-09T04:39:36.543Z,972.56
2017-12-09T04:40:57.545Z,972.54
2017-12-09T04:41:36.530Z,972.55
2017-12-09T04:42:36.544Z,972.60
2017-12-09T04:43:36.510Z,972.57
2017-12-09T04:44:36.500Z,972.49
2017-12-09T04:45:36.494Z,972.52
2017-12-09T04:46:57.487Z,972.50
2017-12-09T04:47:36.471Z,972.51
2017-12-09T04:48:36.465Z,972.56
2017-12-09T04:49:36.470Z,972.50
2017-12-09T04:50:36.449Z,972.55
2017-12-09T04:51:36.441Z,972.53
2017-12-09T04:52:57.441Z,972.55
2017-12-09T04:53:36.421Z,972.55
2017-12-09T04:54:36.414Z,972.53
2017-12-09T04:55:36.412Z,972.51
2017-12-09T04:56:36.403Z,972.55
2017-12-09T04:57:36.391Z,972.55
2017-12-09T04:58:57.393Z,972.58
2017-12-09T04:59:36.375Z,972.53
2017-12-09T05:00:36.363Z,972.54
2017-12-09T05:01:36.354Z,972.52
2017-12-09T05:02:36.345Z,972.50
2017-12-09T05:03:36.346Z,972.39
2017-12-09T05:04:57.332Z,972.55
2017-12-09T05:05:36.324Z,972.67
2017-12-09T05:06:36.308Z,972.59
2017-12-09T05:07:36.303Z,972.64
2017-12-09T05:08:36.308Z,972.67
2017-12-09T05:09:36.286Z,972.65
2017-12-09T05:10:57.280Z,972.66
2017-12-09T05:11:36.273Z,972.67
2017-12-09T05:12:36.308Z,972.65
2017-12-09T05:13:36.254Z,972.71
2017-12-09T05:14:36.246Z,972.64
2017-12-09T05:15:36.268Z,972.70
2017-12-09T05:16:57.233Z,972.70
2017-12-09T05:17:36.216Z,972.67
2017-12-09T05:18:36.213Z,972.72
2017-12-09T05:19:36.200Z,972.77
2017-12-09T05:20:36.192Z,972.76
2017-12-09T05:21:36.182Z,972.78
2017-12-09T05:22:57.177Z,972.80
2017-12-09T05:23:36.164Z,972.76
2017-12-09T05:24:36.159Z,972.73
2017-12-09T05:25:36.146Z,972.80
2017-12-09T05:26:36.142Z,972.76
2017-12-09T05:27:36.137Z,972.79
2017-12-09T05:28:57.131Z,972.79
2017-12-09T05:29:36.108Z,972.83
2017-12-09T05:30:36.108Z,972.79
2017-12-09T05:31:36.102Z,972.81
2017-12-09T05:32:36.093Z,972.78
2017-12-09T05:33:36.079Z,972.79
2017-12-09T05:34:57.083Z,972.87
2017-12-09T05:35:36.060Z,972.89
2017-12-09T05:36:36.054Z,972.84
2017-12-09T05:37:36.052Z,972.92
2017-12-09T05:38:36.037Z,972.86
2017-12-09T05:39:36.028Z,972.89
2017-12-09T05:40:57.031Z,972.93
2017-12-09T05:41:36.021Z,972.91
2017-12-09T05:42:36.003Z,972.94
2017-12-09T05:43:35.999Z,972.99
2017-12-09T05:44:35.992Z,972.99
2017-12-09T05:45:35.980Z,973.04
2017-12-09T05:46:56.973Z,972.98
2017-12-09T05:47:35.958Z,973.01
2017-12-09T05:48:35.975Z,972.97
2017-12-09T05:49:35.951Z,972.98
2017-12-09T05:50:35.942Z,973.02
2017-12-09T05:51:35.925Z,973.01
2017-12-09T05:52:56.928Z,972.99
2017-12-09T05:53:35.910Z,973.01
2017-12-09T05:54:35.911Z,973.05
2017-12-09T05:55:35.899Z,973.02
2017-12-09T05:56:35.886Z,972.99
2017-12-09T05:57:35.875Z,972.98
2017-12-09T05:58:56.881Z,973.05
2017-12-09T05:59:35.868Z,973.04
2017-12-09T06:00:35.853Z,973.05
2017-12-09T06:01:35.844Z,973.04
2017-12-09T06:02:35.834Z,973.06
2017-12-09T06:03:35.881Z,973.04
2017-12-09T06:04:56.826Z,973.04
2017-12-09T06:05:35.815Z,973.04
2017-12-09T06:06:35.807Z,973.02
2017-12-09T06:07:35.823Z,973.08
2017-12-09T06:08:35.789Z,973.04
2017-12-09T06:09:35.776Z,973.04
2017-12-09T06:10:56.772Z,973.06
2017-12-09T06:11:35.813Z,973.03
2017-12-09T06:12:35.752Z,973.05
2017-12-09T06:13:35.745Z,973.09
2017-12-09T06:14:35.734Z,973.06
2017-12-09T06:15:35.729Z,973.11
2017-12-09T06:16:56.730Z,973.09
2017-12-09T06:17:35.706Z,973.10
2017-12-09T06:18:35.716Z,973.12
2017-12-09T06:19:35.694Z,973.05
2017-12-09T06:20:35.679Z,973.12
2017-12-09T06:21:35.677Z,973.17
2017-12-09T06:22:56.677Z,973.16
2017-12-09T06:23:35.708Z,973.13
2017-12-09T06:24:35.653Z,973.11
2017-12-09T06:25:35.643Z,973.14
2017-12-09T06:26:35.629Z,973.23
2017-12-09T06:27:35.621Z,973.25
2017-12-09T06:28:56.621Z,973.28
2017-12-09T06:29:35.603Z,973.23
2017-12-09T06:30:35.616Z,973.26
2017-12-09T06:31:35.586Z,973.21
2017-12-09T06:32:35.579Z,973.22
2017-12-09T06:33:35.567Z,973.16
2017-12-09T06:34:56.617Z,973.13
2017-12-09T06:35:35.553Z,973.17
2017-12-09T06:36:35.548Z,973.16
2017-12-09T06:37:35.546Z,973.19
2017-12-09T06:38:35.525Z,973.18
2017-12-09T06:39:35.519Z,973.16
2017-12-09T06:40:56.518Z,973.22
2017-12-09T06:41:35.499Z,973.23
2017-12-09T06:42:35.492Z,973.26
2017-12-09T06:43:35.481Z,973.30
2017-12-09T06:44:35.528Z,973.24
2017-12-09T06:45:35.467Z,973.26
2017-12-09T06:46:56.459Z,973.28
2017-12-09T06:47:35.446Z,973.26
2017-12-09T06:48:35.434Z,973.23
2017-12-09T06:49:35.431Z,973.27
2017-12-09T06:50:35.433Z,973.19
2017-12-09T06:51:35.412Z,973.23
2017-12-09T06:52:56.430Z,973.14
2017-12-09T06:53:35.394Z,973.15
2017-12-09T06:54:35.390Z,973.18
2017-12-09T06:55:35.392Z,973.21
2017-12-09T06:56:35.384Z,973.20
2017-12-09T06:57:35.361Z,973.18
2017-12-09T06:58:56.353Z,973.24
2017-12-09T06:59:35.345Z,973.24
2017-12-09T07:00:35.338Z,973.28
2017-12-09T07:01:35.330Z,973.27
2017-12-09T07:02:35.319Z,973.35
2017-12-09T07:03:35.307Z,973.26
2017-12-09T07:04:56.303Z,973.29
2017-12-09T07:05:35.294Z,973.24
2017-12-09T07:06:35.276Z,973.36
2017-12-09T07:07:35.263Z,973.34
2017-12-09T07:08:35.255Z,973.33
2017-12-09T07:09:35.258Z,973.37
2017-12-09T07:10:56.248Z,973.35
2017-12-09T07:11:35.246Z,973.30
2017-12-09T07:12:35.231Z,973.32
2017-12-09T07:13:35.261Z,973.35
2017-12-09T07:14:35.206Z,973.41
2017-12-09T07:15:35.195Z,973.43
2017-12-09T07:16:56.194Z,973.39
2017-12-09T07:17:35.176Z,973.47
2017-12-09T07:18:35.177Z,973.44
2017-12-09T07:19:35.163Z,973.46
2017-12-09T07:20:35.146Z,973.47
2017-12-09T07:21:35.138Z,973.44
2017-12-09T07:22:56.139Z,973.47
2017-12-09T07:23:35.119Z,973.51
2017-12-09T07:24:35.124Z,973.55
2017-12-09T07:25:35.102Z,973.51
2017-12-09T07:26:35.109Z,973.58
2017-12-09T07:27:35.084Z,973.53
2017-12-09T07:28:56.125Z,973.61
2017-12-09T07:29:35.075Z,973.59
2017-12-09T07:30:35.059Z,973.58
2017-12-09T07:31:35.053Z,973.55
2017-12-09T07:32:35.043Z,973.52
2017-12-09T07:33:35.039Z,973.50
2017-12-09T07:34:56.030Z,973.49
2017-12-09T07:35:35.025Z,973.52
2017-12-09T07:36:35.017Z,973.53
2017-12-09T07:37:35.001Z,973.57
2017-12-09T07:38:35.004Z,973.56
2017-12-09T07:39:34.988Z,973.56
2017-12-09T07:40:55.984Z,973.57
2017-12-09T07:41:34.962Z,973.53
2017-12-09T07:42:34.959Z,973.51
2017-12-09T07:43:34.951Z,973.50
2017-12-09T07:44:34.944Z,973.52
2017-12-09T07:45:34.933Z,973.49
2017-12-09T07:46:55.931Z,973.49
2017-12-09T07:47:34.918Z,973.56
2017-12-09T07:48:34.913Z,973.55
2017-12-09T07:49:34.903Z,973.57
2017-12-09T07:50:34.888Z,973.57
2017-12-09T07:51:34.884Z,973.52
2017-12-09T07:52:55.884Z,973.53
2017-12-09T07:53:34.872Z,973.52
2017-12-09T07:54:34.857Z,973.47
2017-12-09T07:55:34.855Z,973.49
2017-12-09T07:56:34.848Z,973.47
2017-12-09T07:57:34.832Z,973.56
2017-12-09T07:58:55.839Z,973.55
2017-12-09T07:59:34.817Z,973.56
2017-12-09T08:00:34.813Z,973.56
2017-12-09T08:01:34.810Z,973.56
2017-12-09T08:02:34.795Z,973.50
2017-12-09T08:03:34.784Z,973.52
2017-12-09T08:04:55.790Z,973.43
2017-12-09T08:05:34.766Z,973.47
2017-12-09T08:06:34.765Z,973.44
2017-12-09T08:07:34.762Z,973.46
2017-12-09T08:08:34.749Z,973.54
2017-12-09T08:09:34.736Z,973.63
2017-12-09T08:10:55.731Z,973.57
2017-12-09T08:11:34.717Z,973.52
2017-12-09T08:12:34.716Z,973.60
2017-12-09T08:13:34.702Z,973.58
2017-12-09T08:14:34.699Z,973.64
2017-12-09T08:15:34.688Z,973.69
2017-12-09T08:16:55.688Z,973.62
2017-12-09T08:17:34.669Z,973.54
2017-12-09T08:18:34.670Z,973.58
2017-12-09T08:19:34.661Z,973.61
2017-12-09T08:20:34.659Z,973.63
2017-12-09T08:21:34.643Z,973.66
2017-12-09T08:22:55.665Z,973.71
2017-12-09T08:23:34.646Z,973.79
2017-12-09T08:24:34.618Z,973.80
2017-12-09T08:25:34.608Z,973.76
2017-12-09T08:26:34.604Z,973.77
2017-12-09T08:27:34.597Z,973.77
2017-12-09T08:28:55.650Z,973.80
2017-12-09T08:29:34.582Z,973.80
2017-12-09T08:30:34.599Z,973.85
2017-12-09T08:31:34.569Z,973.85
2017-12-09T08:32:34.560Z,973.86
2017-12-09T08:33:34.557Z,973.84
2017-12-09T08:34:55.546Z,973.87
2017-12-09T08:35:34.538Z,973.89
2017-12-09T08:36:34.535Z,973.78
2017-12-09T08:37:34.519Z,973.73
2017-12-09T08:38:34.522Z,973.76
2017-12-09T08:39:34.507Z,973.71
2017-12-09T08:40:55.507Z,973.71
2017-12-09T08:41:34.498Z,973.79
2017-12-09T08:42:34.489Z,973.72
2017-12-09T08:43:34.482Z,973.73
2017-12-09T08:44:34.473Z,973.73
2017-12-09T08:45:34.461Z,973.71
2017-12-09T08:46:55.475Z,973.74
2017-12-09T08:47:34.451Z,973.69
2017-12-09T08:48:34.473Z,973.65
2017-12-09T08:49:34.446Z,973.62
2017-12-09T08:50:34.433Z,973.66
2017-12-09T08:51:34.423Z,973.69
2017-12-09T08:52:55.433Z,973.69
2017-12-09T08:53:34.406Z,973.64
2017-12-09T08:54:34.405Z,973.63
2017-12-09T08:55:34.406Z,973.66
2017-12-09T08:56:34.393Z,973.63
2017-12-09T08:57:34.397Z,973.60
2017-12-09T08:58:55.379Z,973.58
2017-12-09T08:59:34.378Z,973.62
2017-12-09T09:00:34.396Z,973.61
2017-12-09T09:01:34.356Z,973.53
2017-12-09T09:02:34.349Z,973.54
2017-12-09T09:03:34.369Z,973.57
2017-12-09T09:04:55.345Z,973.66
2017-12-09T09:05:34.326Z,973.61
2017-12-09T09:06:34.320Z,973.58
2017-12-09T09:07:34.313Z,973.62
2017-12-09T09:08:34.302Z,973.67
2017-12-09T09:09:34.309Z,973.61
2017-12-09T09:10:55.300Z,973.65
2017-12-09T09:11:34.287Z,973.60
2017-12-09T09:12:34.283Z,973.67
2017-12-09T09:13:34.272Z,973.66
2017-12-09T09:14:34.267Z,973.67
2017-12-09T09:15:34.268Z,973.66
2017-12-09T09:16:55.325Z,973.58
2017-12-09T09:17:34.243Z,973.68
2017-12-09T09:18:34.238Z,973.67
2017-12-09T09:19:34.235Z,973.63
2017-12-09T09:20:34.241Z,973.64
2017-12-09T09:21:34.219Z,973.56
2017-12-09T09:22:55.215Z,973.62
2017-12-09T09:23:34.203Z,973.72
2017-12-09T09:24:34.202Z,973.64
2017-12-09T09:25:34.204Z,973.60
2017-12-09T09:26:34.185Z,973.72
2017-12-09T09:27:34.178Z,973.67
2017-12-09T09:28:55.184Z,973.66
2017-12-09T09:29:34.182Z,973.65
2017-12-09T09:30:34.166Z,973.75
2017-12-09T09:31:34.153Z,973.62
2017-12-09T09:32:34.160Z,973.59
2017-12-09T09:33:34.157Z,973.63
2017-12-09T09:34:55.173Z,973.55
2017-12-09T09:35:34.136Z,973.67
2017-12-09T09:36:34.129Z,973.68
2017-12-09T09:37:34.128Z,973.69
2017-12-09T09:38:34.109Z,973.66
2017-12-09T09:39:34.294Z,973.67
2017-12-09T09:40:55.102Z,973.80
2017-12-09T09:41:34.089Z,973.58
2017-12-09T09:42:34.076Z,973.61
2017-12-09T09:43:34.078Z,973.65
2017-12-09T09:44:34.072Z,973.61
2017-12-09T09:45:34.063Z,973.69
2017-12-09T09:46:55.061Z,973.60
2017-12-09T09:47:34.045Z,973.65
2017-12-09T09:48:34.044Z,973.58
2017-12-09T09:49:34.037Z,973.52
2017-12-09T09:50:34.031Z,973.58
2017-12-09T09:51:34.021Z,973.55
2017-12-09T09:52:56.024Z,973.51
2017-12-09T09:53:34.001Z,973.48
2017-12-09T09:54:33.995Z,973.37
2017-12-09T09:55:34.006Z,973.37
2017-12-09T09:56:34.011Z,973.31
2017-12-09T09:57:33.979Z,973.32
2017-12-09T09:58:54.964Z,973.30
2017-12-09T09:59:34.000Z,973.33
2017-12-09T10:00:33.953Z,973.43
2017-12-09T10:01:33.939Z,973.38
2017-12-09T10:02:33.931Z,973.34
2017-12-09T10:03:33.921Z,973.39
2017-12-09T10:04:54.939Z,973.30
2017-12-09T10:05:33.912Z,973.37
2017-12-09T10:06:33.903Z,973.29
2017-12-09T10:07:33.944Z,973.31
2017-12-09T10:08:33.905Z,973.26
2017-12-09T10:09:33.877Z,973.24
2017-12-09T10:10:54.882Z,973.33
2017-12-09T10:11:33.864Z,973.25
2017-12-09T10:12:33.868Z,973.33
2017-12-09T10:13:33.846Z,973.32
2017-12-09T10:14:33.848Z,973.22
2017-12-09T10:15:33.842Z,973.22
2017-12-09T10:16:54.835Z,973.21
2017-12-09T10:17:33.836Z,973.15
2017-12-09T10:18:33.814Z,973.13
2017-12-09T10:19:33.813Z,973.08
2017-12-09T10:20:33.820Z,973.01
2017-12-09T10:21:33.786Z,973.07
2017-12-09T10:22:54.794Z,973.09
2017-12-09T10:23:33.770Z,973.07
2017-12-09T10:24:33.768Z,973.14
2017-12-09T10:25:33.762Z,973.06
2017-12-09T10:26:33.769Z,973.09
2017-12-09T10:27:33.747Z,973.03
2017-12-09T10:28:54.806Z,973.00
2017-12-09T10:29:33.750Z,972.92
2017-12-09T10:30:33.741Z,972.95
2017-12-09T10:31:33.722Z,972.92
2017-12-09T10:32:33.720Z,972.92
2017-12-09T10:33:33.705Z,972.98
2017-12-09T10:34:54.712Z,972.86
2017-12-09T10:35:33.702Z,972.83
2017-12-09T10:36:33.692Z,972.79
2017-12-09T10:37:33.679Z,972.83
2017-12-09T10:38:33.670Z,972.86
2017-12-09T10:39:33.666Z,973.01
2017-12-09T10:40:54.659Z,972.83
2017-12-09T10:41:33.650Z,972.91
2017-12-09T10:42:33.649Z,972.87
2017-12-09T10:43:33.631Z,972.95
2017-12-09T10:44:33.626Z,972.91
2017-12-09T10:45:33.619Z,972.91
2017-12-09T10:46:54.612Z,972.90
2017-12-09T10:47:33.598Z,972.91
2017-12-09T10:48:33.596Z,973.00
2017-12-09T10:49:33.621Z,973.09
2017-12-09T10:50:33.582Z,972.97
2017-12-09T10:51:33.572Z,972.90
2017-12-09T10:52:54.579Z,973.03
2017-12-09T10:53:33.557Z,973.02
2017-12-09T10:54:33.554Z,973.17
2017-12-09T10:55:33.543Z,973.16
2017-12-09T10:56:33.544Z,973.09
2017-12-09T10:57:33.527Z,973.16
2017-12-09T10:58:54.533Z,973.12
2017-12-09T10:59:33.515Z,973.13
2017-12-09T11:00:33.558Z,973.14
2017-12-09T11:01:33.514Z,973.15
2017-12-09T11:02:33.486Z,973.13
2017-12-09T11:03:33.489Z,973.08
2017-12-09T11:04:54.484Z,973.09
2017-12-09T11:05:33.470Z,973.12
2017-12-09T11:06:33.463Z,973.12
2017-12-09T11:07:33.451Z,973.06
2017-12-09T11:08:33.449Z,973.07
2017-12-09T11:09:33.439Z,973.05
2017-12-09T11:10:54.430Z,973.11
2017-12-09T11:11:33.420Z,973.17
2017-12-09T11:12:33.423Z,973.10
2017-12-09T11:13:33.413Z,973.17
2017-12-09T11:14:33.408Z,973.20
2017-12-09T11:15:33.404Z,973.17
2017-12-09T11:16:54.396Z,973.23
2017-12-09T11:17:33.382Z,973.19
2017-12-09T11:18:33.366Z,973.20
2017-12-09T11:19:33.366Z,973.21
2017-12-09T11:20:33.354Z,973.17
2017-12-09T11:21:33.351Z,973.22
2017-12-09T11:22:54.347Z,973.17
2017-12-09T11:23:33.329Z,973.24
2017-12-09T11:24:33.329Z,973.17
2017-12-09T11:25:33.320Z,973.15
2017-12-09T11:26:33.313Z,973.15
2017-12-09T11:27:33.301Z,973.16
2017-12-09T11:28:54.302Z,973.18
2017-12-09T11:29:33.279Z,973.22
2017-12-09T11:30:33.279Z,973.20
2017-12-09T11:31:33.261Z,973.17
2017-12-09T11:32:33.256Z,973.28
2017-12-09T11:33:33.252Z,973.33
2017-12-09T11:34:54.243Z,973.30
2017-12-09T11:35:33.224Z,973.28
2017-12-09T11:36:33.218Z,973.27
2017-12-09T11:37:33.216Z,973.21
2017-12-09T11:38:33.202Z,973.28
2017-12-09T11:39:33.202Z,973.22
2017-12-09T11:40:54.195Z,973.27
2017-12-09T11:41:33.238Z,973.27
2017-12-09T11:42:33.169Z,973.25
2017-12-09T11:43:33.185Z,973.28
2017-12-09T11:44:33.150Z,973.21
2017-12-09T11:45:33.144Z,973.23
2017-12-09T11:46:54.140Z,973.19
2017-12-09T11:47:33.144Z,973.26
2017-12-09T11:48:33.120Z,973.33
2017-12-09T11:49:33.108Z,973.25
2017-12-09T11:50:33.102Z,973.28
2017-12-09T11:51:33.095Z,973.34
2017-12-09T11:52:54.102Z,973.26
2017-12-09T11:53:33.080Z,973.18
2017-12-09T11:54:33.063Z,973.20
2017-12-09T11:55:33.060Z,973.18
2017-12-09T11:56:33.053Z,973.18
2017-12-09T11:57:33.041Z,973.19
2017-12-09T11:58:54.038Z,973.18
2017-12-09T11:59:33.033Z,973.22
2017-12-09T12:00:33.017Z,973.08
2017-12-09T12:01:33.009Z,973.13
2017-12-09T12:02:33.003Z,973.09
2017-12-09T12:03:32.997Z,973.15
2017-12-09T12:04:54.000Z,973.18
2017-12-09T12:05:32.974Z,973.19
2017-12-09T12:06:32.960Z,973.23
2017-12-09T12:07:32.954Z,973.18
2017-12-09T12:08:32.967Z,973.17
2017-12-09T12:09:32.937Z,973.26
2017-12-09T12:10:53.942Z,973.18
2017-12-09T12:11:33.000Z,973.16
2017-12-09T12:12:32.912Z,973.28
2017-12-09T12:13:32.946Z,973.33
2017-12-09T12:14:32.936Z,973.29
2017-12-09T12:15:32.910Z,973.27
2017-12-09T12:16:53.888Z,973.28
2017-12-09T12:17:32.863Z,973.20
2017-12-09T12:18:32.868Z,973.29
2017-12-09T12:19:32.843Z,973.27
2017-12-09T12:20:32.844Z,973.20
2017-12-09T12:21:32.837Z,973.19
2017-12-09T12:22:53.827Z,973.24
2017-12-09T12:23:32.811Z,973.29
2017-12-09T12:24:32.802Z,973.30
2017-12-09T12:25:32.795Z,973.21
2017-12-09T12:26:32.788Z,973.27
2017-12-09T12:27:32.789Z,973.33
2017-12-09T12:28:53.777Z,973.28